Hartford, South Dakota
Current Conditions -  °F | °C
As of 11:56 AM on Saturday 20 Dec 2014 (Local Time) from KFSD Reporting Station
Overcast Overcast  
Wind Chill: 24°   Ceiling: 700
Heat Index: 32°   Visibility: 7mi
Dew Point: 29°   Wind: 10mph
Humidity: 88%   Direction: 170°S
Pressure: 30.06"   Gusts: NA
Location:  43.62°N, 96.94°W
Report Text: KFSD 201756Z 17009KT 7SM OVC007 00/M02 A3006 RMK AO2 SLP195 4/001 T00001017 10000 21006 58002
Loading
Personal Weather Stations






























Interactive Weather Map New forecast layout! Learn more

10-Day Weather Forecast

Advertisements
Track Severe Weather on mobile